sensor_id;sensor_type;location;lat;lon;timestamp;P1;durP1;ratioP1;P2;durP2;ratioP2
15669;SDS011;18524;45.190;5.732;2023-08-06T00:02:34;1.27;;;1.17;;
15669;SDS011;18524;45.190;5.732;2023-08-06T00:07:25;1.30;;;1.20;;
15669;SDS011;18524;45.190;5.732;2023-08-06T00:12:15;1.27;;;1.17;;
15669;SDS011;18524;45.190;5.732;2023-08-06T00:17:06;1.40;;;1.30;;
15669;SDS011;18524;45.190;5.732;2023-08-06T00:21:56;1.33;;;1.23;;
15669;SDS011;18524;45.190;5.732;2023-08-06T00:26:46;1.40;;;1.30;;
15669;SDS011;18524;45.190;5.732;2023-08-06T00:31:37;1.30;;;1.20;;
15669;SDS011;18524;45.190;5.732;2023-08-06T00:36:27;0.90;;;0.90;;
15669;SDS011;18524;45.190;5.732;2023-08-06T00:41:17;1.30;;;1.20;;
15669;SDS011;18524;45.190;5.732;2023-08-06T00:46:08;1.30;;;1.20;;
15669;SDS011;18524;45.190;5.732;2023-08-06T00:50:58;1.53;;;1.43;;
15669;SDS011;18524;45.190;5.732;2023-08-06T00:55:49;1.20;;;1.10;;
15669;SDS011;18524;45.190;5.732;2023-08-06T01:00:41;1.00;;;0.90;;
15669;SDS011;18524;45.190;5.732;2023-08-06T01:05:31;1.47;;;1.00;;
15669;SDS011;18524;45.190;5.732;2023-08-06T01:15:25;2.37;;;1.00;;
15669;SDS011;18524;45.190;5.732;2023-08-06T01:20:20;0.97;;;0.97;;
15669;SDS011;18524;45.190;5.732;2023-08-06T01:25:10;0.83;;;0.80;;
15669;SDS011;18524;45.190;5.732;2023-08-06T01:35:05;1.10;;;0.90;;
15669;SDS011;18524;45.190;5.732;2023-08-06T01:39:57;1.43;;;1.03;;
15669;SDS011;18524;45.190;5.732;2023-08-06T01:44:48;1.20;;;1.10;;
15669;SDS011;18524;45.190;5.732;2023-08-06T01:49:38;0.93;;;0.90;;
15669;SDS011;18524;45.190;5.732;2023-08-06T01:54:28;1.57;;;1.10;;
15669;SDS011;18524;45.190;5.732;2023-08-06T01:59:19;1.40;;;1.20;;
15669;SDS011;18524;45.190;5.732;2023-08-06T02:04:09;1.20;;;1.10;;
15669;SDS011;18524;45.190;5.732;2023-08-06T02:08:59;1.30;;;1.20;;
15669;SDS011;18524;45.190;5.732;2023-08-06T02:13:50;1.37;;;1.23;;
15669;SDS011;18524;45.190;5.732;2023-08-06T02:18:40;1.30;;;1.03;;
15669;SDS011;18524;45.190;5.732;2023-08-06T02:23:30;1.97;;;1.00;;
15669;SDS011;18524;45.190;5.732;2023-08-06T02:28:21;1.10;;;0.80;;
15669;SDS011;18524;45.190;5.732;2023-08-06T02:33:11;1.10;;;1.00;;
15669;SDS011;18524;45.190;5.732;2023-08-06T02:38:01;2.03;;;0.93;;
15669;SDS011;18524;45.190;5.732;2023-08-06T02:42:52;0.90;;;0.90;;
15669;SDS011;18524;45.190;5.732;2023-08-06T02:47:42;1.23;;;0.80;;
15669;SDS011;18524;45.190;5.732;2023-08-06T02:52:32;1.43;;;1.00;;
15669;SDS011;18524;45.190;5.732;2023-08-06T02:57:23;1.43;;;1.20;;
15669;SDS011;18524;45.190;5.732;2023-08-06T03:02:13;1.83;;;1.03;;
15669;SDS011;18524;45.190;5.732;2023-08-06T03:07:03;2.30;;;1.00;;
15669;SDS011;18524;45.190;5.732;2023-08-06T03:11:54;1.23;;;1.00;;
15669;SDS011;18524;45.190;5.732;2023-08-06T03:16:44;1.10;;;0.90;;
15669;SDS011;18524;45.190;5.732;2023-08-06T03:21:34;2.27;;;0.90;;
15669;SDS011;18524;45.190;5.732;2023-08-06T03:26:25;2.27;;;0.73;;
15669;SDS011;18524;45.190;5.732;2023-08-06T03:31:15;1.50;;;1.00;;
15669;SDS011;18524;45.190;5.732;2023-08-06T03:36:06;1.53;;;0.90;;
15669;SDS011;18524;45.190;5.732;2023-08-06T03:40:56;2.53;;;0.80;;
15669;SDS011;18524;45.190;5.732;2023-08-06T03:45:46;2.63;;;0.87;;
15669;SDS011;18524;45.190;5.732;2023-08-06T03:50:37;1.23;;;0.73;;
15669;SDS011;18524;45.190;5.732;2023-08-06T03:55:28;1.13;;;0.80;;
15669;SDS011;18524;45.190;5.732;2023-08-06T04:00:18;2.73;;;1.10;;
15669;SDS011;18524;45.190;5.732;2023-08-06T04:05:08;1.90;;;0.97;;
15669;SDS011;18524;45.190;5.732;2023-08-06T04:10:03;2.60;;;0.90;;
15669;SDS011;18524;45.190;5.732;2023-08-06T04:14:54;4.77;;;1.50;;
15669;SDS011;18524;45.190;5.732;2023-08-06T04:19:49;5.97;;;1.50;;
15669;SDS011;18524;45.190;5.732;2023-08-06T04:24:41;6.43;;;1.57;;
15669;SDS011;18524;45.190;5.732;2023-08-06T04:29:33;3.63;;;1.20;;
15669;SDS011;18524;45.190;5.732;2023-08-06T04:34:23;4.63;;;1.43;;
15669;SDS011;18524;45.190;5.732;2023-08-06T04:39:13;5.77;;;1.50;;
15669;SDS011;18524;45.190;5.732;2023-08-06T04:44:04;6.17;;;1.87;;
15669;SDS011;18524;45.190;5.732;2023-08-06T04:48:54;6.53;;;1.80;;
15669;SDS011;18524;45.190;5.732;2023-08-06T04:53:44;6.27;;;1.53;;
15669;SDS011;18524;45.190;5.732;2023-08-06T04:58:35;7.80;;;1.77;;
15669;SDS011;18524;45.190;5.732;2023-08-06T05:03:25;7.33;;;1.90;;
15669;SDS011;18524;45.190;5.732;2023-08-06T05:08:16;6.80;;;1.90;;
15669;SDS011;18524;45.190;5.732;2023-08-06T05:13:06;5.50;;;1.60;;
15669;SDS011;18524;45.190;5.732;2023-08-06T05:17:57;6.50;;;1.80;;
15669;SDS011;18524;45.190;5.732;2023-08-06T05:22:47;6.10;;;1.50;;
15669;SDS011;18524;45.190;5.732;2023-08-06T05:27:37;7.07;;;1.80;;
15669;SDS011;18524;45.190;5.732;2023-08-06T05:32:28;5.90;;;1.50;;
15669;SDS011;18524;45.190;5.732;2023-08-06T05:37:18;5.73;;;1.60;;
15669;SDS011;18524;45.190;5.732;2023-08-06T05:42:08;8.43;;;1.83;;
15669;SDS011;18524;45.190;5.732;2023-08-06T05:46:59;6.93;;;2.00;;
15669;SDS011;18524;45.190;5.732;2023-08-06T05:51:49;7.53;;;1.67;;
15669;SDS011;18524;45.190;5.732;2023-08-06T05:56:40;6.53;;;1.43;;
15669;SDS011;18524;45.190;5.732;2023-08-06T06:01:30;5.77;;;1.50;;
15669;SDS011;18524;45.190;5.732;2023-08-06T06:06:20;6.37;;;1.60;;
15669;SDS011;18524;45.190;5.732;2023-08-06T06:11:11;6.40;;;1.63;;
15669;SDS011;18524;45.190;5.732;2023-08-06T06:16:01;5.33;;;1.80;;
15669;SDS011;18524;45.190;5.732;2023-08-06T06:20:52;8.37;;;1.97;;
15669;SDS011;18524;45.190;5.732;2023-08-06T06:25:42;6.77;;;1.83;;
15669;SDS011;18524;45.190;5.732;2023-08-06T06:30:33;7.33;;;1.87;;
15669;SDS011;18524;45.190;5.732;2023-08-06T06:35:24;6.97;;;1.60;;
15669;SDS011;18524;45.190;5.732;2023-08-06T06:40:14;7.57;;;1.63;;
15669;SDS011;18524;45.190;5.732;2023-08-06T06:45:04;5.10;;;1.60;;
15669;SDS011;18524;45.190;5.732;2023-08-06T06:49:55;7.13;;;2.20;;
15669;SDS011;18524;45.190;5.732;2023-08-06T06:54:46;5.90;;;1.40;;
15669;SDS011;18524;45.190;5.732;2023-08-06T06:59:36;4.33;;;1.30;;
15669;SDS011;18524;45.190;5.732;2023-08-06T07:04:28;6.90;;;1.70;;
15669;SDS011;18524;45.190;5.732;2023-08-06T07:09:18;4.67;;;1.50;;
15669;SDS011;18524;45.190;5.732;2023-08-06T07:14:08;4.37;;;1.27;;
15669;SDS011;18524;45.190;5.732;2023-08-06T07:18:59;3.50;;;0.87;;
15669;SDS011;18524;45.190;5.732;2023-08-06T07:23:49;4.10;;;1.00;;
15669;SDS011;18524;45.190;5.732;2023-08-06T07:28:40;3.27;;;0.83;;
15669;SDS011;18524;45.190;5.732;2023-08-06T07:33:30;3.60;;;1.10;;
15669;SDS011;18524;45.190;5.732;2023-08-06T07:38:20;2.90;;;0.90;;
15669;SDS011;18524;45.190;5.732;2023-08-06T07:43:11;4.70;;;1.17;;
15669;SDS011;18524;45.190;5.732;2023-08-06T07:48:02;3.23;;;1.10;;
15669;SDS011;18524;45.190;5.732;2023-08-06T07:52:53;2.77;;;1.00;;
15669;SDS011;18524;45.190;5.732;2023-08-06T07:57:43;6.27;;;1.30;;
15669;SDS011;18524;45.190;5.732;2023-08-06T08:02:33;3.67;;;1.10;;
15669;SDS011;18524;45.190;5.732;2023-08-06T08:07:24;5.67;;;1.20;;
15669;SDS011;18524;45.190;5.732;2023-08-06T08:12:14;4.80;;;1.13;;
15669;SDS011;18524;45.190;5.732;2023-08-06T08:17:05;3.33;;;1.20;;
15669;SDS011;18524;45.190;5.732;2023-08-06T08:21:56;3.13;;;1.13;;
15669;SDS011;18524;45.190;5.732;2023-08-06T08:26:46;4.00;;;1.27;;
15669;SDS011;18524;45.190;5.732;2023-08-06T08:31:36;3.97;;;1.20;;
15669;SDS011;18524;45.190;5.732;2023-08-06T08:36:29;3.70;;;1.10;;
15669;SDS011;18524;45.190;5.732;2023-08-06T08:41:19;3.73;;;1.03;;
15669;SDS011;18524;45.190;5.732;2023-08-06T08:46:10;4.93;;;0.80;;
15669;SDS011;18524;45.190;5.732;2023-08-06T08:51:02;3.13;;;0.80;;
15669;SDS011;18524;45.190;5.732;2023-08-06T08:55:54;2.30;;;0.90;;
15669;SDS011;18524;45.190;5.732;2023-08-06T09:00:45;2.43;;;1.00;;
15669;SDS011;18524;45.190;5.732;2023-08-06T09:05:39;3.27;;;0.90;;
15669;SDS011;18524;45.190;5.732;2023-08-06T09:10:33;4.27;;;1.07;;
15669;SDS011;18524;45.190;5.732;2023-08-06T09:15:26;4.47;;;0.60;;
15669;SDS011;18524;45.190;5.732;2023-08-06T09:20:17;2.00;;;0.80;;
15669;SDS011;18524;45.190;5.732;2023-08-06T09:25:08;2.37;;;0.77;;
15669;SDS011;18524;45.190;5.732;2023-08-06T09:30:00;3.00;;;0.80;;
15669;SDS011;18524;45.190;5.732;2023-08-06T09:34:55;3.30;;;0.83;;
15669;SDS011;18524;45.190;5.732;2023-08-06T09:39:46;2.40;;;0.70;;
15669;SDS011;18524;45.190;5.732;2023-08-06T09:44:36;2.63;;;0.90;;
15669;SDS011;18524;45.190;5.732;2023-08-06T09:54:24;2.20;;;0.50;;
15669;SDS011;18524;45.190;5.732;2023-08-06T09:59:17;1.83;;;0.80;;
15669;SDS011;18524;45.190;5.732;2023-08-06T10:04:08;1.20;;;0.47;;
15669;SDS011;18524;45.190;5.732;2023-08-06T10:08:58;1.50;;;0.60;;
15669;SDS011;18524;45.190;5.732;2023-08-06T10:13:49;1.90;;;0.80;;
15669;SDS011;18524;45.190;5.732;2023-08-06T10:18:45;1.37;;;0.63;;
15669;SDS011;18524;45.190;5.732;2023-08-06T10:23:39;1.90;;;0.63;;
15669;SDS011;18524;45.190;5.732;2023-08-06T10:28:37;1.30;;;0.70;;
15669;SDS011;18524;45.190;5.732;2023-08-06T10:33:41;1.50;;;0.70;;
15669;SDS011;18524;45.190;5.732;2023-08-06T10:38:43;2.57;;;0.70;;
15669;SDS011;18524;45.190;5.732;2023-08-06T10:43:36;0.90;;;0.50;;
15669;SDS011;18524;45.190;5.732;2023-08-06T10:48:40;2.60;;;1.10;;
15669;SDS011;18524;45.190;5.732;2023-08-06T10:53:31;2.20;;;0.60;;
15669;SDS011;18524;45.190;5.732;2023-08-06T10:58:22;1.53;;;0.70;;
15669;SDS011;18524;45.190;5.732;2023-08-06T11:03:14;0.70;;;0.33;;
15669;SDS011;18524;45.190;5.732;2023-08-06T11:08:05;0.60;;;0.40;;
15669;SDS011;18524;45.190;5.732;2023-08-06T11:13:00;0.87;;;0.57;;
15669;SDS011;18524;45.190;5.732;2023-08-06T11:17:51;1.43;;;0.30;;
15669;SDS011;18524;45.190;5.732;2023-08-06T11:22:41;0.70;;;0.30;;
15669;SDS011;18524;45.190;5.732;2023-08-06T11:27:32;1.50;;;0.80;;
15669;SDS011;18524;45.190;5.732;2023-08-06T11:32:22;0.93;;;0.60;;
15669;SDS011;18524;45.190;5.732;2023-08-06T11:37:12;1.30;;;0.60;;
15669;SDS011;18524;45.190;5.732;2023-08-06T11:42:03;1.30;;;0.53;;
15669;SDS011;18524;45.190;5.732;2023-08-06T11:46:55;0.40;;;0.37;;
15669;SDS011;18524;45.190;5.732;2023-08-06T11:51:46;0.73;;;0.30;;
15669;SDS011;18524;45.190;5.732;2023-08-06T11:56:37;1.50;;;0.63;;
15669;SDS011;18524;45.190;5.732;2023-08-06T12:01:28;0.20;;;0.20;;
15669;SDS011;18524;45.190;5.732;2023-08-06T12:06:18;1.13;;;0.50;;
15669;SDS011;18524;45.190;5.732;2023-08-06T12:11:09;1.47;;;0.50;;
15669;SDS011;18524;45.190;5.732;2023-08-06T12:15:59;1.00;;;0.43;;
15669;SDS011;18524;45.190;5.732;2023-08-06T12:20:49;0.80;;;0.47;;
15669;SDS011;18524;45.190;5.732;2023-08-06T12:25:40;1.20;;;0.60;;
15669;SDS011;18524;45.190;5.732;2023-08-06T12:30:31;1.13;;;0.30;;
15669;SDS011;18524;45.190;5.732;2023-08-06T12:35:22;0.90;;;0.40;;
15669;SDS011;18524;45.190;5.732;2023-08-06T12:40:13;0.57;;;0.47;;
15669;SDS011;18524;45.190;5.732;2023-08-06T12:45:03;1.03;;;0.50;;
15669;SDS011;18524;45.190;5.732;2023-08-06T12:49:54;1.30;;;0.40;;
15669;SDS011;18524;45.190;5.732;2023-08-06T12:54:44;1.50;;;0.40;;
15669;SDS011;18524;45.190;5.732;2023-08-06T12:59:36;1.43;;;0.57;;
15669;SDS011;18524;45.190;5.732;2023-08-06T13:04:26;1.10;;;0.57;;
15669;SDS011;18524;45.190;5.732;2023-08-06T13:09:18;1.33;;;0.50;;
15669;SDS011;18524;45.190;5.732;2023-08-06T13:14:10;0.97;;;0.40;;
15669;SDS011;18524;45.190;5.732;2023-08-06T13:19:01;1.20;;;0.67;;
15669;SDS011;18524;45.190;5.732;2023-08-06T13:23:52;0.90;;;0.40;;
15669;SDS011;18524;45.190;5.732;2023-08-06T13:28:42;0.80;;;0.30;;
15669;SDS011;18524;45.190;5.732;2023-08-06T13:33:33;2.70;;;0.80;;
15669;SDS011;18524;45.190;5.732;2023-08-06T13:38:23;1.93;;;0.70;;
15669;SDS011;18524;45.190;5.732;2023-08-06T13:43:13;1.40;;;0.77;;
15669;SDS011;18524;45.190;5.732;2023-08-06T13:48:07;1.27;;;0.60;;
15669;SDS011;18524;45.190;5.732;2023-08-06T13:52:57;1.10;;;0.70;;
15669;SDS011;18524;45.190;5.732;2023-08-06T13:57:47;1.10;;;0.43;;
15669;SDS011;18524;45.190;5.732;2023-08-06T14:02:38;0.60;;;0.40;;
15669;SDS011;18524;45.190;5.732;2023-08-06T14:07:28;0.60;;;0.30;;
15669;SDS011;18524;45.190;5.732;2023-08-06T14:12:19;0.77;;;0.40;;
15669;SDS011;18524;45.190;5.732;2023-08-06T14:17:09;0.83;;;0.40;;
15669;SDS011;18524;45.190;5.732;2023-08-06T14:21:59;0.67;;;0.33;;
15669;SDS011;18524;45.190;5.732;2023-08-06T14:26:50;0.40;;;0.30;;
15669;SDS011;18524;45.190;5.732;2023-08-06T14:31:41;0.70;;;0.60;;
15669;SDS011;18524;45.190;5.732;2023-08-06T14:36:31;1.00;;;0.40;;
15669;SDS011;18524;45.190;5.732;2023-08-06T14:41:22;0.60;;;0.30;;
15669;SDS011;18524;45.190;5.732;2023-08-06T14:46:12;0.70;;;0.37;;
15669;SDS011;18524;45.190;5.732;2023-08-06T14:51:02;1.07;;;0.53;;
15669;SDS011;18524;45.190;5.732;2023-08-06T14:55:53;1.83;;;0.50;;
15669;SDS011;18524;45.190;5.732;2023-08-06T15:00:44;0.97;;;0.73;;
15669;SDS011;18524;45.190;5.732;2023-08-06T15:05:36;1.07;;;0.50;;
15669;SDS011;18524;45.190;5.732;2023-08-06T15:10:27;1.60;;;0.50;;
15669;SDS011;18524;45.190;5.732;2023-08-06T15:15:17;0.50;;;0.40;;
15669;SDS011;18524;45.190;5.732;2023-08-06T15:20:08;0.90;;;0.50;;
15669;SDS011;18524;45.190;5.732;2023-08-06T15:24:59;2.63;;;0.80;;
15669;SDS011;18524;45.190;5.732;2023-08-06T15:29:50;1.67;;;0.73;;
15669;SDS011;18524;45.190;5.732;2023-08-06T15:34:42;1.23;;;0.70;;
15669;SDS011;18524;45.190;5.732;2023-08-06T15:39:32;1.00;;;0.70;;
15669;SDS011;18524;45.190;5.732;2023-08-06T15:44:23;2.00;;;0.60;;
15669;SDS011;18524;45.190;5.732;2023-08-06T15:49:13;1.20;;;0.60;;
15669;SDS011;18524;45.190;5.732;2023-08-06T15:54:04;0.90;;;0.70;;
15669;SDS011;18524;45.190;5.732;2023-08-06T15:58:55;1.37;;;0.80;;
15669;SDS011;18524;45.190;5.732;2023-08-06T16:03:45;1.43;;;0.70;;
15669;SDS011;18524;45.190;5.732;2023-08-06T16:08:36;1.17;;;0.70;;
15669;SDS011;18524;45.190;5.732;2023-08-06T16:13:27;1.63;;;0.70;;
15669;SDS011;18524;45.190;5.732;2023-08-06T16:18:17;1.40;;;0.70;;
15669;SDS011;18524;45.190;5.732;2023-08-06T16:23:08;1.60;;;0.70;;
15669;SDS011;18524;45.190;5.732;2023-08-06T16:27:59;1.80;;;0.90;;
15669;SDS011;18524;45.190;5.732;2023-08-06T16:32:49;1.53;;;0.97;;
15669;SDS011;18524;45.190;5.732;2023-08-06T16:37:41;1.13;;;0.90;;
15669;SDS011;18524;45.190;5.732;2023-08-06T16:42:32;1.70;;;0.90;;
15669;SDS011;18524;45.190;5.732;2023-08-06T16:47:22;1.70;;;0.70;;
15669;SDS011;18524;45.190;5.732;2023-08-06T16:52:12;1.10;;;0.60;;
15669;SDS011;18524;45.190;5.732;2023-08-06T16:57:03;1.37;;;1.00;;
15669;SDS011;18524;45.190;5.732;2023-08-06T17:01:53;1.50;;;0.80;;
15669;SDS011;18524;45.190;5.732;2023-08-06T17:06:44;2.23;;;0.80;;
15669;SDS011;18524;45.190;5.732;2023-08-06T17:11:34;0.70;;;0.63;;
15669;SDS011;18524;45.190;5.732;2023-08-06T17:16:25;1.57;;;1.00;;
15669;SDS011;18524;45.190;5.732;2023-08-06T17:21:15;0.80;;;0.60;;
15669;SDS011;18524;45.190;5.732;2023-08-06T17:26:05;2.83;;;1.00;;
15669;SDS011;18524;45.190;5.732;2023-08-06T17:30:57;0.90;;;0.70;;
15669;SDS011;18524;45.190;5.732;2023-08-06T17:35:48;1.03;;;0.70;;
15669;SDS011;18524;45.190;5.732;2023-08-06T17:40:39;0.77;;;0.57;;
15669;SDS011;18524;45.190;5.732;2023-08-06T17:45:31;1.60;;;0.83;;
15669;SDS011;18524;45.190;5.732;2023-08-06T17:50:21;1.77;;;0.70;;
15669;SDS011;18524;45.190;5.732;2023-08-06T17:55:12;1.63;;;0.77;;
15669;SDS011;18524;45.190;5.732;2023-08-06T18:00:02;2.67;;;1.10;;
15669;SDS011;18524;45.190;5.732;2023-08-06T18:04:53;1.27;;;0.93;;
15669;SDS011;18524;45.190;5.732;2023-08-06T18:09:43;0.97;;;0.60;;
15669;SDS011;18524;45.190;5.732;2023-08-06T18:14:34;1.60;;;1.17;;
15669;SDS011;18524;45.190;5.732;2023-08-06T18:19:28;1.80;;;1.00;;
15669;SDS011;18524;45.190;5.732;2023-08-06T18:24:18;2.17;;;1.20;;
15669;SDS011;18524;45.190;5.732;2023-08-06T18:29:09;2.07;;;1.17;;
15669;SDS011;18524;45.190;5.732;2023-08-06T18:33:59;1.67;;;0.97;;
15669;SDS011;18524;45.190;5.732;2023-08-06T18:38:50;1.37;;;1.07;;
15669;SDS011;18524;45.190;5.732;2023-08-06T18:43:40;1.77;;;0.83;;
15669;SDS011;18524;45.190;5.732;2023-08-06T18:48:31;1.07;;;0.70;;
15669;SDS011;18524;45.190;5.732;2023-08-06T18:53:21;2.03;;;0.97;;
15669;SDS011;18524;45.190;5.732;2023-08-06T18:58:12;2.43;;;1.10;;
15669;SDS011;18524;45.190;5.732;2023-08-06T19:03:02;1.73;;;1.10;;
15669;SDS011;18524;45.190;5.732;2023-08-06T19:07:52;3.30;;;1.30;;
15669;SDS011;18524;45.190;5.732;2023-08-06T19:12:43;2.30;;;1.50;;
15669;SDS011;18524;45.190;5.732;2023-08-06T19:17:33;2.40;;;1.53;;
15669;SDS011;18524;45.190;5.732;2023-08-06T19:22:23;2.93;;;1.53;;
15669;SDS011;18524;45.190;5.732;2023-08-06T19:27:14;3.00;;;1.70;;
15669;SDS011;18524;45.190;5.732;2023-08-06T19:32:05;2.13;;;1.20;;
15669;SDS011;18524;45.190;5.732;2023-08-06T19:36:57;3.43;;;1.70;;
15669;SDS011;18524;45.190;5.732;2023-08-06T19:41:47;4.10;;;2.07;;
15669;SDS011;18524;45.190;5.732;2023-08-06T19:46:37;3.97;;;2.13;;
15669;SDS011;18524;45.190;5.732;2023-08-06T19:51:28;3.63;;;2.27;;
15669;SDS011;18524;45.190;5.732;2023-08-06T19:56:19;2.47;;;1.80;;
15669;SDS011;18524;45.190;5.732;2023-08-06T20:01:09;2.53;;;1.40;;
15669;SDS011;18524;45.190;5.732;2023-08-06T20:06:00;2.03;;;1.40;;
15669;SDS011;18524;45.190;5.732;2023-08-06T20:10:53;1.87;;;1.30;;
15669;SDS011;18524;45.190;5.732;2023-08-06T20:15:48;2.40;;;1.30;;
15669;SDS011;18524;45.190;5.732;2023-08-06T20:20:39;1.33;;;0.97;;
15669;SDS011;18524;45.190;5.732;2023-08-06T20:25:29;2.53;;;1.20;;
15669;SDS011;18524;45.190;5.732;2023-08-06T20:30:21;1.83;;;0.97;;
15669;SDS011;18524;45.190;5.732;2023-08-06T20:35:12;1.73;;;1.63;;
15669;SDS011;18524;45.190;5.732;2023-08-06T20:40:02;1.93;;;1.40;;
15669;SDS011;18524;45.190;5.732;2023-08-06T20:44:53;2.33;;;2.00;;
15669;SDS011;18524;45.190;5.732;2023-08-06T20:49:43;1.20;;;1.10;;
15669;SDS011;18524;45.190;5.732;2023-08-06T20:54:33;2.10;;;1.43;;
15669;SDS011;18524;45.190;5.732;2023-08-06T20:59:24;2.50;;;1.30;;
15669;SDS011;18524;45.190;5.732;2023-08-06T21:04:14;2.53;;;1.50;;
15669;SDS011;18524;45.190;5.732;2023-08-06T21:09:04;1.33;;;0.90;;
15669;SDS011;18524;45.190;5.732;2023-08-06T21:13:56;2.10;;;0.93;;
15669;SDS011;18524;45.190;5.732;2023-08-06T21:18:48;1.13;;;0.93;;
15669;SDS011;18524;45.190;5.732;2023-08-06T21:23:38;1.80;;;1.10;;
15669;SDS011;18524;45.190;5.732;2023-08-06T21:28:31;1.93;;;1.13;;
15669;SDS011;18524;45.190;5.732;2023-08-06T21:33:24;2.00;;;1.00;;
15669;SDS011;18524;45.190;5.732;2023-08-06T21:38:15;1.83;;;1.07;;
15669;SDS011;18524;45.190;5.732;2023-08-06T21:43:05;1.67;;;1.00;;
15669;SDS011;18524;45.190;5.732;2023-08-06T21:47:56;2.93;;;1.20;;
15669;SDS011;18524;45.190;5.732;2023-08-06T21:52:46;1.53;;;1.10;;
15669;SDS011;18524;45.190;5.732;2023-08-06T21:57:38;2.17;;;1.60;;
15669;SDS011;18524;45.190;5.732;2023-08-06T22:02:28;2.47;;;1.23;;
15669;SDS011;18524;45.190;5.732;2023-08-06T22:07:18;3.00;;;1.50;;
15669;SDS011;18524;45.190;5.732;2023-08-06T22:12:09;1.97;;;1.10;;
15669;SDS011;18524;45.190;5.732;2023-08-06T22:16:59;1.30;;;0.93;;
15669;SDS011;18524;45.190;5.732;2023-08-06T22:21:49;1.93;;;1.00;;
15669;SDS011;18524;45.190;5.732;2023-08-06T22:26:40;1.33;;;1.00;;
15669;SDS011;18524;45.190;5.732;2023-08-06T22:31:30;1.47;;;1.00;;
15669;SDS011;18524;45.190;5.732;2023-08-06T22:36:21;2.87;;;1.07;;
15669;SDS011;18524;45.190;5.732;2023-08-06T22:41:11;0.93;;;0.70;;
15669;SDS011;18524;45.190;5.732;2023-08-06T22:46:01;1.77;;;0.90;;
15669;SDS011;18524;45.190;5.732;2023-08-06T22:50:52;1.43;;;1.03;;
15669;SDS011;18524;45.190;5.732;2023-08-06T22:55:43;1.87;;;0.90;;
15669;SDS011;18524;45.190;5.732;2023-08-06T23:00:33;1.23;;;0.97;;
15669;SDS011;18524;45.190;5.732;2023-08-06T23:05:24;1.73;;;1.10;;
15669;SDS011;18524;45.190;5.732;2023-08-06T23:10:14;2.70;;;0.97;;
15669;SDS011;18524;45.190;5.732;2023-08-06T23:15:05;1.23;;;1.10;;
15669;SDS011;18524;45.190;5.732;2023-08-06T23:19:55;2.17;;;1.13;;
15669;SDS011;18524;45.190;5.732;2023-08-06T23:24:47;1.37;;;1.13;;
15669;SDS011;18524;45.190;5.732;2023-08-06T23:29:38;1.33;;;0.90;;
15669;SDS011;18524;45.190;5.732;2023-08-06T23:34:28;1.83;;;1.00;;
15669;SDS011;18524;45.190;5.732;2023-08-06T23:39:18;1.37;;;0.97;;
15669;SDS011;18524;45.190;5.732;2023-08-06T23:44:09;1.80;;;0.80;;
15669;SDS011;18524;45.190;5.732;2023-08-06T23:48:59;1.87;;;0.87;;
15669;SDS011;18524;45.190;5.732;2023-08-06T23:53:50;1.83;;;0.90;;
15669;SDS011;18524;45.190;5.732;2023-08-06T23:58:40;1.10;;;0.87;;
